< < Back
Terminal Aerodrome Forecast


Current Version              Previous Versions:   1  2  3  4  5  6  7  8  9  

Terminal Aerodrome Forecast

498
FTUS42 KJAX 231500 AAB
TAFJAX
TAF AMD
KJAX 231557Z 2316/2412 17008KT P6SM BKN015
     FM240000 20010KT P6SM VCSH SCT035 BKN050=

Latest METAR

295
SAUS80 KWBC 231700 RRA
MTRJAX
METAR KJAX 231656Z 17009KT 10SM FEW012 BKN022 BKN029 24/22 A2995 RMK AO2
SLP142 T02440222 $


USA.gov is the U.S. government's official web portal to all federal, state and local government web resources and services.